createdAt,value
2023-01-13T00:00:17.646Z,12.27
2023-01-13T00:02:45.703Z,13.10
2023-01-13T00:05:13.584Z,11.97
2023-01-13T00:07:41.453Z,17.77
2023-01-13T00:10:11.229Z,19.73
2023-01-13T00:12:41.220Z,15.23
2023-01-13T00:15:10.659Z,18.00
2023-01-13T00:17:39.904Z,15.50
2023-01-13T00:20:08.917Z,23.93
2023-01-13T00:22:36.937Z,19.37
2023-01-13T00:25:06.533Z,18.07
2023-01-13T00:27:34.705Z,20.93
2023-01-13T00:30:03.083Z,17.20
2023-01-13T00:32:31.060Z,19.50
2023-01-13T00:35:00.328Z,15.33
2023-01-13T00:37:28.235Z,20.23
2023-01-13T00:39:57.763Z,17.23
2023-01-13T00:42:42.903Z,17.83
2023-01-13T00:45:11.527Z,23.40
2023-01-13T00:47:39.422Z,19.87
2023-01-13T00:50:09.882Z,19.33
2023-01-13T00:52:37.803Z,14.80
2023-01-13T00:55:06.460Z,17.57
2023-01-13T00:57:35.426Z,18.97
2023-01-13T01:00:03.474Z,22.27
2023-01-13T01:02:31.371Z,13.83
2023-01-13T01:04:59.956Z,21.03
2023-01-13T01:07:29.214Z,20.83
2023-01-13T01:09:57.022Z,17.93
2023-01-13T01:12:24.863Z,24.53
2023-01-13T01:14:52.682Z,23.57
2023-01-13T01:17:20.633Z,22.93
2023-01-13T01:19:48.482Z,19.10
2023-01-13T01:22:16.318Z,17.23
2023-01-13T01:24:45.538Z,20.50
2023-01-13T01:27:13.392Z,19.73
2023-01-13T01:29:41.233Z,21.07
2023-01-13T01:32:09.078Z,20.50
2023-01-13T01:34:36.948Z,26.13
2023-01-13T01:37:04.797Z,21.53
2023-01-13T01:39:32.731Z,21.83
2023-01-13T01:42:27.823Z,18.20
2023-01-13T01:45:02.391Z,22.77
2023-01-13T01:47:33.368Z,19.87
2023-01-13T01:50:03.396Z,23.57
2023-01-13T01:52:35.206Z,24.67
2023-01-13T01:55:05.973Z,19.47
2023-01-13T01:57:42.053Z,16.63
2023-01-13T02:00:11.132Z,24.67
2023-01-13T02:02:39.856Z,17.43
2023-01-13T02:05:08.545Z,24.57
2023-01-13T02:07:39.067Z,20.00
2023-01-13T02:10:09.720Z,29.83
2023-01-13T02:12:39.638Z,19.23
2023-01-13T02:15:11.762Z,22.60
2023-01-13T02:18:02.084Z,21.63
2023-01-13T02:21:00.489Z,23.80
2023-01-13T02:24:05.535Z,32.10
2023-01-13T02:27:08.972Z,22.13
2023-01-13T02:30:09.832Z,20.37
2023-01-13T02:32:47.562Z,26.90
2023-01-13T02:35:21.934Z,22.67
2023-01-13T02:37:50.920Z,22.17
2023-01-13T02:40:23.485Z,29.17
2023-01-13T02:43:16.556Z,23.43
2023-01-13T02:45:52.110Z,19.17
2023-01-13T02:48:21.527Z,25.17
2023-01-13T02:50:56.264Z,20.93
2023-01-13T02:53:28.858Z,20.23
2023-01-13T02:55:59.377Z,20.17
2023-01-13T02:58:30.107Z,25.53
2023-01-13T03:00:59.606Z,23.77
2023-01-13T03:03:27.541Z,24.50
2023-01-13T03:06:11.522Z,21.37
2023-01-13T03:08:47.733Z,22.90
2023-01-13T03:11:19.663Z,22.17
2023-01-13T03:14:02.443Z,16.93
2023-01-13T03:16:41.862Z,16.83
2023-01-13T03:19:21.672Z,27.37
2023-01-13T03:21:54.771Z,23.10
2023-01-13T03:24:29.023Z,25.97
2023-01-13T03:27:02.980Z,23.77
2023-01-13T03:29:36.881Z,19.77
2023-01-13T03:32:09.464Z,24.90
2023-01-13T03:34:44.191Z,24.17
2023-01-13T03:37:14.802Z,23.40
2023-01-13T03:39:48.024Z,25.43
2023-01-13T03:42:20.631Z,26.33
2023-01-13T03:44:50.749Z,27.40
2023-01-13T03:47:24.849Z,28.27
2023-01-13T03:49:57.966Z,14.67
2023-01-13T03:52:29.295Z,26.13
2023-01-13T03:55:03.547Z,18.30
2023-01-13T03:57:35.969Z,21.87
2023-01-13T04:00:09.476Z,30.00
2023-01-13T04:02:50.380Z,26.70
2023-01-13T04:05:19.039Z,18.60
2023-01-13T04:07:55.517Z,21.70
2023-01-13T04:10:29.311Z,18.40
2023-01-13T04:13:02.395Z,15.27
2023-01-13T04:15:35.989Z,19.43
2023-01-13T04:18:12.054Z,31.80
2023-01-13T04:20:40.761Z,22.97
2023-01-13T04:23:09.559Z,20.47
2023-01-13T04:25:37.706Z,17.63
2023-01-13T04:28:05.900Z,21.07
2023-01-13T04:30:33.883Z,16.43
2023-01-13T04:33:01.779Z,17.50
2023-01-13T04:35:31.144Z,20.97
2023-01-13T04:38:01.189Z,13.50
2023-01-13T04:40:29.226Z,12.27
2023-01-13T04:42:57.193Z,17.93
2023-01-13T04:45:25.233Z,10.60
2023-01-13T04:47:53.367Z,12.83
2023-01-13T04:50:22.651Z,16.03
2023-01-13T04:52:52.755Z,13.77
2023-01-13T04:55:21.792Z,18.30
2023-01-13T04:57:49.703Z,11.77
2023-01-13T05:00:19.720Z,16.60
2023-01-13T05:02:47.658Z,8.63
2023-01-13T05:05:15.551Z,9.10
2023-01-13T05:07:43.411Z,10.13
2023-01-13T05:10:13.205Z,8.93
2023-01-13T05:12:58.273Z,10.53
2023-01-13T05:15:55.716Z,14.77
2023-01-13T05:18:23.741Z,14.10
2023-01-13T05:20:51.618Z,13.33
2023-01-13T05:23:36.926Z,11.87
2023-01-13T05:26:07.066Z,11.43
2023-01-13T05:28:35.904Z,11.03
2023-01-13T05:31:03.936Z,11.23
2023-01-13T05:33:33.136Z,12.60
2023-01-13T05:36:03.709Z,11.77
2023-01-13T05:38:31.570Z,13.97
2023-01-13T05:41:18.186Z,10.43
2023-01-13T05:43:47.540Z,13.47
2023-01-13T05:46:17.580Z,12.90
2023-01-13T05:48:45.951Z,9.60
2023-01-13T05:51:14.368Z,13.27
2023-01-13T05:53:42.513Z,11.17
2023-01-13T05:56:11.903Z,11.33
2023-01-13T05:58:39.775Z,11.60
2023-01-13T06:01:10.869Z,9.70
2023-01-13T06:03:39.361Z,9.47
2023-01-13T06:06:08.875Z,12.43
2023-01-13T06:08:39.392Z,13.80
2023-01-13T06:11:07.652Z,10.13
2023-01-13T06:13:35.629Z,10.40
2023-01-13T06:16:03.626Z,10.17
2023-01-13T06:18:32.910Z,11.90
2023-01-13T06:21:00.833Z,15.27
2023-01-13T06:23:29.235Z,14.37
2023-01-13T06:26:05.061Z,11.87
2023-01-13T06:28:33.246Z,13.57
2023-01-13T06:31:04.488Z,17.23
2023-01-13T06:33:37.952Z,13.73
2023-01-13T06:36:08.487Z,13.17
2023-01-13T06:38:39.173Z,10.67
2023-01-13T06:41:09.074Z,11.90
2023-01-13T06:43:36.323Z,12.80
2023-01-13T06:46:04.845Z,12.67
2023-01-13T06:48:35.351Z,13.07
2023-01-13T06:51:03.550Z,13.17
2023-01-13T06:53:31.570Z,10.00
2023-01-13T06:55:59.544Z,13.43
2023-01-13T06:58:27.543Z,10.30
2023-01-13T07:00:55.596Z,17.30
2023-01-13T07:03:23.479Z,16.13
2023-01-13T07:05:56.360Z,13.73
2023-01-13T07:08:24.931Z,15.93
2023-01-13T07:10:53.079Z,14.47
2023-01-13T07:13:39.079Z,13.13
2023-01-13T07:16:09.009Z,15.63
2023-01-13T07:18:37.867Z,15.37
2023-01-13T07:21:09.068Z,14.90
2023-01-13T07:23:38.517Z,15.33
2023-01-13T07:26:07.015Z,12.60
2023-01-13T07:28:35.504Z,15.90
2023-01-13T07:31:03.404Z,12.23
2023-01-13T07:33:33.043Z,11.40
2023-01-13T07:36:02.993Z,12.37
2023-01-13T07:38:33.347Z,16.03
2023-01-13T07:41:22.809Z,11.33
2023-01-13T07:43:50.157Z,14.97
2023-01-13T07:46:19.037Z,14.23
2023-01-13T07:48:48.485Z,15.43
2023-01-13T07:51:16.578Z,14.83
2023-01-13T07:53:45.872Z,12.40
2023-01-13T07:56:13.795Z,14.83
2023-01-13T07:58:41.758Z,19.07
2023-01-13T08:01:10.800Z,14.37
2023-01-13T08:03:38.908Z,17.27
2023-01-13T08:06:07.523Z,11.40
2023-01-13T08:08:35.461Z,13.67
2023-01-13T08:11:07.799Z,14.63
2023-01-13T08:13:36.432Z,17.00
2023-01-13T08:16:06.898Z,13.40
2023-01-13T08:18:35.953Z,19.03
2023-01-13T08:21:06.079Z,13.43
2023-01-13T08:23:34.441Z,24.10
2023-01-13T08:26:05.376Z,17.83
2023-01-13T08:28:33.346Z,14.67
2023-01-13T08:31:02.308Z,11.27
2023-01-13T08:33:30.717Z,16.03
2023-01-13T08:35:58.896Z,15.03
2023-01-13T08:38:26.914Z,16.53
2023-01-13T08:40:54.985Z,18.33
2023-01-13T08:43:24.420Z,12.07
2023-01-13T08:46:00.073Z,10.60
2023-01-13T08:48:31.459Z,14.63
2023-01-13T08:51:04.632Z,15.70
2023-01-13T08:53:32.547Z,14.70
2023-01-13T08:56:00.735Z,18.63
2023-01-13T08:58:29.976Z,17.50
2023-01-13T09:00:57.984Z,15.20
2023-01-13T09:03:26.089Z,17.27
2023-01-13T09:05:54.041Z,21.60
2023-01-13T09:08:22.029Z,16.33
2023-01-13T09:10:50.083Z,12.50
2023-01-13T09:13:17.245Z,19.57
2023-01-13T09:15:47.328Z,13.20
2023-01-13T09:18:15.605Z,14.77
2023-01-13T09:20:44.448Z,15.43
2023-01-13T09:23:12.416Z,11.43
2023-01-13T09:25:40.628Z,22.37
2023-01-13T09:28:09.097Z,19.50
2023-01-13T09:30:38.940Z,18.30
2023-01-13T09:33:25.767Z,14.43
2023-01-13T09:35:58.994Z,21.77
2023-01-13T09:38:26.980Z,13.33
2023-01-13T09:40:55.583Z,11.20
2023-01-13T09:43:44.695Z,13.27
2023-01-13T09:46:31.158Z,11.90
2023-01-13T09:49:03.502Z,19.67
2023-01-13T09:51:38.435Z,17.83
2023-01-13T09:54:17.314Z,15.33
2023-01-13T09:56:45.289Z,14.63
2023-01-13T09:59:13.644Z,13.97
2023-01-13T10:01:51.775Z,10.40
2023-01-13T10:04:21.132Z,13.97
2023-01-13T10:06:53.099Z,14.53
2023-01-13T10:09:28.349Z,13.37
2023-01-13T10:12:16.735Z,8.70
2023-01-13T10:14:52.966Z,13.87
2023-01-13T10:17:31.255Z,14.33
2023-01-13T10:20:11.270Z,16.13
2023-01-13T10:22:51.933Z,12.87
2023-01-13T10:25:31.890Z,13.63
2023-01-13T10:28:09.008Z,12.33
2023-01-13T10:30:40.213Z,16.23
2023-01-13T10:33:13.425Z,12.27
2023-01-13T10:35:56.940Z,12.60
2023-01-13T10:38:27.026Z,15.03
2023-01-13T10:40:57.162Z,10.97
2023-01-13T10:43:25.535Z,12.20
2023-01-13T10:45:59.115Z,12.77
2023-01-13T10:48:41.008Z,10.13
2023-01-13T10:51:21.004Z,16.33
2023-01-13T10:53:54.179Z,11.83
2023-01-13T10:56:23.624Z,13.47
2023-01-13T10:58:51.574Z,11.30
2023-01-13T11:01:26.832Z,7.80
2023-01-13T11:03:55.963Z,10.73
2023-01-13T11:06:28.841Z,11.53
2023-01-13T11:08:59.117Z,7.73
2023-01-13T11:11:37.362Z,9.43
2023-01-13T11:14:26.406Z,18.07
2023-01-13T11:16:59.159Z,12.90
2023-01-13T11:19:31.993Z,13.83
2023-01-13T11:22:07.786Z,15.80
2023-01-13T11:24:40.155Z,12.27
2023-01-13T11:27:15.505Z,8.87
2023-01-13T11:29:56.467Z,10.50
2023-01-13T11:32:25.585Z,10.10
2023-01-13T11:35:00.415Z,7.63
2023-01-13T11:37:33.679Z,10.17
2023-01-13T11:40:06.388Z,11.10
2023-01-13T11:42:42.846Z,6.83
2023-01-13T11:45:18.624Z,8.47
2023-01-13T11:47:49.583Z,11.90
2023-01-13T11:50:22.895Z,8.43
2023-01-13T11:53:13.094Z,14.20
2023-01-13T11:55:55.419Z,6.63
2023-01-13T11:58:56.631Z,8.57
2023-01-13T12:01:38.098Z,8.97
2023-01-13T12:04:24.563Z,12.27
2023-01-13T12:07:02.356Z,11.60
2023-01-13T12:09:44.494Z,10.13
2023-01-13T12:12:27.486Z,8.67
2023-01-13T12:15:18.381Z,12.27
2023-01-13T12:17:56.729Z,8.20
2023-01-13T12:20:36.556Z,10.30
2023-01-13T12:23:14.076Z,10.57
2023-01-13T12:25:47.401Z,9.03
2023-01-13T12:28:18.200Z,9.83
2023-01-13T12:30:50.644Z,15.13
2023-01-13T12:33:29.869Z,8.10
2023-01-13T12:36:04.022Z,7.53
2023-01-13T12:38:37.154Z,9.30
2023-01-13T12:41:17.603Z,9.90
2023-01-13T12:44:06.912Z,8.43
2023-01-13T12:46:44.802Z,11.03
2023-01-13T12:49:33.313Z,7.17
2023-01-13T12:52:13.737Z,8.93
2023-01-13T12:55:16.782Z,10.27
2023-01-13T12:58:00.836Z,9.67
2023-01-13T13:00:35.845Z,6.27
2023-01-13T13:03:32.341Z,9.23
2023-01-13T13:06:14.944Z,14.87
2023-01-13T13:08:52.117Z,10.00
2023-01-13T13:11:42.746Z,8.83
2023-01-13T13:14:15.254Z,9.53
2023-01-13T13:16:49.529Z,11.33
2023-01-13T13:19:45.971Z,7.57
2023-01-13T13:22:39.241Z,11.10
2023-01-13T13:25:27.210Z,10.10
2023-01-13T13:28:15.757Z,11.63
2023-01-13T13:30:53.556Z,6.23
2023-01-13T13:33:49.787Z,7.37
2023-01-13T13:36:45.642Z,6.90
2023-01-13T13:39:40.202Z,13.40
2023-01-13T13:42:32.623Z,9.00
2023-01-13T13:45:21.375Z,4.67
2023-01-13T13:47:51.516Z,6.67
2023-01-13T13:50:21.551Z,7.17
2023-01-13T13:52:55.041Z,10.87
2023-01-13T13:55:25.823Z,7.27
2023-01-13T13:57:55.950Z,8.23
2023-01-13T14:00:27.536Z,8.07
2023-01-13T14:03:00.360Z,7.00
2023-01-13T14:05:30.448Z,10.20
2023-01-13T14:08:03.205Z,9.10
2023-01-13T14:10:33.433Z,8.90
2023-01-13T14:13:03.949Z,9.50
2023-01-13T14:15:35.643Z,10.80
2023-01-13T14:18:07.180Z,11.03
2023-01-13T14:20:36.889Z,7.70
2023-01-13T14:23:05.973Z,9.50
2023-01-13T14:25:39.432Z,12.67
2023-01-13T14:28:22.549Z,8.53
2023-01-13T14:30:52.281Z,10.50
2023-01-13T14:33:25.714Z,12.03
2023-01-13T14:36:08.035Z,8.20
2023-01-13T14:38:35.973Z,10.73
2023-01-13T14:41:19.061Z,8.67
2023-01-13T14:43:49.361Z,6.17
2023-01-13T14:46:20.982Z,8.03
2023-01-13T14:48:53.888Z,9.37
2023-01-13T14:51:24.760Z,8.27
2023-01-13T14:53:53.954Z,15.63
2023-01-13T14:56:43.935Z,7.87
2023-01-13T14:59:41.422Z,7.30
2023-01-13T15:02:41.265Z,9.87
2023-01-13T15:05:36.593Z,9.13
2023-01-13T15:08:23.074Z,8.90
2023-01-13T15:10:54.598Z,8.77
2023-01-13T15:13:26.797Z,9.27
2023-01-13T15:15:56.744Z,9.00
2023-01-13T15:18:24.964Z,10.77
2023-01-13T15:20:54.249Z,7.07
2023-01-13T15:23:22.592Z,12.00
2023-01-13T15:25:50.587Z,12.70
2023-01-13T15:28:20.768Z,11.47
2023-01-13T15:30:50.305Z,10.10
2023-01-13T15:33:19.386Z,9.70
2023-01-13T15:35:49.007Z,8.53
2023-01-13T15:38:19.533Z,10.97
2023-01-13T15:40:48.373Z,11.53
2023-01-13T15:43:35.664Z,9.43
2023-01-13T15:46:34.377Z,10.77
2023-01-13T15:49:08.732Z,10.80
2023-01-13T15:51:36.790Z,10.17
2023-01-13T15:54:06.131Z,10.73
2023-01-13T15:56:37.197Z,10.47
2023-01-13T15:59:05.815Z,10.90
2023-01-13T16:01:33.928Z,12.77
2023-01-13T16:04:01.891Z,8.67
2023-01-13T16:06:33.115Z,8.63
2023-01-13T16:09:02.931Z,10.57
2023-01-13T16:11:32.816Z,12.53
2023-01-13T16:14:01.080Z,8.63
2023-01-13T16:16:29.934Z,7.40
2023-01-13T16:18:57.865Z,8.90
2023-01-13T16:21:25.786Z,8.47
2023-01-13T16:23:53.755Z,8.93
2023-01-13T16:26:23.454Z,5.77
2023-01-13T16:28:54.204Z,12.27
2023-01-13T16:31:29.002Z,8.77
2023-01-13T16:33:57.300Z,9.33
2023-01-13T16:36:25.623Z,6.70
2023-01-13T16:38:54.553Z,8.60
2023-01-13T16:41:24.812Z,4.87
2023-01-13T16:43:54.567Z,9.63
2023-01-13T16:46:25.434Z,7.93
2023-01-13T16:48:54.862Z,10.27
2023-01-13T16:51:24.066Z,6.67
2023-01-13T16:53:52.917Z,6.97
2023-01-13T16:56:26.581Z,6.90
2023-01-13T16:58:58.194Z,8.17
2023-01-13T17:01:27.836Z,8.23
2023-01-13T17:03:56.656Z,7.80
2023-01-13T17:06:28.352Z,6.93
2023-01-13T17:09:00.913Z,9.43
2023-01-13T17:11:28.877Z,8.33
2023-01-13T17:13:58.177Z,5.57
2023-01-13T17:16:26.684Z,6.30
2023-01-13T17:18:55.124Z,10.10
2023-01-13T17:21:23.021Z,8.90
2023-01-13T17:23:51.584Z,6.00
2023-01-13T17:26:33.206Z,6.50
2023-01-13T17:29:02.909Z,6.90
2023-01-13T17:31:31.102Z,8.13
2023-01-13T17:33:59.375Z,4.70
2023-01-13T17:36:27.248Z,7.57
2023-01-13T17:38:55.347Z,6.63
2023-01-13T17:41:23.636Z,7.70
2023-01-13T17:43:52.400Z,10.03
2023-01-13T17:46:23.114Z,8.83
2023-01-13T17:48:52.699Z,9.13
2023-01-13T17:51:25.011Z,6.20
2023-01-13T17:53:54.622Z,7.73
2023-01-13T17:56:24.598Z,6.07
2023-01-13T17:58:52.705Z,7.30
2023-01-13T18:01:23.467Z,9.10
2023-01-13T18:03:51.855Z,7.97
2023-01-13T18:06:21.190Z,8.97
2023-01-13T18:08:50.252Z,8.40
2023-01-13T18:11:20.042Z,8.77
2023-01-13T18:13:48.059Z,7.03
2023-01-13T18:16:18.344Z,10.77
2023-01-13T18:18:50.015Z,9.37
2023-01-13T18:21:40.335Z,9.57
2023-01-13T18:24:30.560Z,13.07
2023-01-13T18:27:16.416Z,7.03
2023-01-13T18:29:44.425Z,9.97
2023-01-13T18:32:12.607Z,9.17
2023-01-13T18:34:41.927Z,8.77
2023-01-13T18:37:11.447Z,8.20
2023-01-13T18:39:39.384Z,3.33
2023-01-13T18:42:26.539Z,7.37
2023-01-13T18:44:56.746Z,9.00
2023-01-13T18:47:25.808Z,7.87
2023-01-13T18:49:55.036Z,5.73
2023-01-13T18:52:24.300Z,11.53
2023-01-13T18:54:52.558Z,12.30
2023-01-13T18:57:21.267Z,7.17
2023-01-13T18:59:49.524Z,7.77
2023-01-13T19:02:19.891Z,7.60
2023-01-13T19:04:48.349Z,7.50
2023-01-13T19:07:23.209Z,8.63
2023-01-13T19:09:51.413Z,7.80
2023-01-13T19:12:25.987Z,9.73
2023-01-13T19:14:54.941Z,12.60
2023-01-13T19:17:23.998Z,8.27
2023-01-13T19:19:53.813Z,10.40
2023-01-13T19:22:27.294Z,6.57
2023-01-13T19:24:55.503Z,10.10
2023-01-13T19:27:23.901Z,7.23
2023-01-13T19:29:53.658Z,6.93
2023-01-13T19:32:22.501Z,9.83
2023-01-13T19:34:51.501Z,9.17
2023-01-13T19:37:20.493Z,10.70
2023-01-13T19:39:49.877Z,6.37
2023-01-13T19:42:35.138Z,7.70
2023-01-13T19:45:20.616Z,4.93
2023-01-13T19:47:48.537Z,9.37
2023-01-13T19:50:16.843Z,6.43
2023-01-13T19:52:45.233Z,5.73
2023-01-13T19:55:14.549Z,3.77
2023-01-13T19:57:43.453Z,5.37
2023-01-13T20:00:14.048Z,7.23
2023-01-13T20:02:47.717Z,7.90
2023-01-13T20:05:20.833Z,7.13
2023-01-13T20:07:49.975Z,8.23
2023-01-13T20:10:20.693Z,6.50
2023-01-13T20:12:48.809Z,5.33
2023-01-13T20:15:17.038Z,8.20
2023-01-13T20:17:45.130Z,11.93
2023-01-13T20:20:14.963Z,9.93
2023-01-13T20:22:43.452Z,10.23
2023-01-13T20:25:16.760Z,8.20
2023-01-13T20:27:47.234Z,6.20
2023-01-13T20:30:15.627Z,8.37
2023-01-13T20:32:44.245Z,7.60
2023-01-13T20:35:12.496Z,8.93
2023-01-13T20:37:42.310Z,7.03
2023-01-13T20:40:13.927Z,7.43
2023-01-13T20:42:44.874Z,8.63
2023-01-13T20:45:17.329Z,7.27
2023-01-13T20:47:46.141Z,7.03
2023-01-13T20:50:14.950Z,10.30
2023-01-13T20:52:43.389Z,5.10
2023-01-13T20:55:12.306Z,8.17
2023-01-13T20:57:40.687Z,7.17
2023-01-13T21:00:10.233Z,6.87
2023-01-13T21:02:43.869Z,8.40
2023-01-13T21:05:11.782Z,8.77
2023-01-13T21:07:39.644Z,6.50
2023-01-13T21:10:11.286Z,7.80
2023-01-13T21:12:56.539Z,8.47
2023-01-13T21:15:25.691Z,8.33
2023-01-13T21:18:12.532Z,13.03
2023-01-13T21:20:40.786Z,9.97
2023-01-13T21:23:10.600Z,5.93
2023-01-13T21:25:39.750Z,7.27
2023-01-13T21:28:10.121Z,9.27
2023-01-13T21:30:39.035Z,9.57
2023-01-13T21:33:08.832Z,11.10
2023-01-13T21:35:39.583Z,9.30
2023-01-13T21:38:07.631Z,9.00
2023-01-13T21:40:35.680Z,9.57
2023-01-13T21:43:20.970Z,7.60
2023-01-13T21:46:06.802Z,6.70
2023-01-13T21:48:36.054Z,9.53
2023-01-13T21:51:04.107Z,8.87
2023-01-13T21:53:32.013Z,8.50
2023-01-13T21:55:59.919Z,8.73
2023-01-13T21:58:27.944Z,9.03
2023-01-13T22:00:56.092Z,7.83
2023-01-13T22:03:24.187Z,7.23
2023-01-13T22:05:59.057Z,10.63
2023-01-13T22:08:26.974Z,7.10
2023-01-13T22:11:01.088Z,8.63
2023-01-13T22:13:47.720Z,11.03
2023-01-13T22:16:16.319Z,8.37
2023-01-13T22:18:44.274Z,10.80
2023-01-13T22:21:13.460Z,9.07
2023-01-13T22:23:41.320Z,12.13
2023-01-13T22:26:09.612Z,8.50
2023-01-13T22:28:42.739Z,9.40
2023-01-13T22:31:12.116Z,12.77
2023-01-13T22:33:40.956Z,8.77
2023-01-13T22:36:09.965Z,14.67
2023-01-13T22:38:39.231Z,7.83
2023-01-13T22:41:09.855Z,7.50
2023-01-13T22:43:38.632Z,9.57
2023-01-13T22:46:08.208Z,7.60
2023-01-13T22:48:36.359Z,9.57
2023-01-13T22:51:08.821Z,10.33
2023-01-13T22:53:37.439Z,11.03
2023-01-13T22:56:07.411Z,7.93
2023-01-13T22:58:35.364Z,8.53
2023-01-13T23:01:11.488Z,11.90
2023-01-13T23:03:40.038Z,8.87
2023-01-13T23:06:08.193Z,10.67
2023-01-13T23:08:36.708Z,10.93
2023-01-13T23:11:07.595Z,11.07
2023-01-13T23:13:37.837Z,10.97
2023-01-13T23:16:07.635Z,11.93
2023-01-13T23:18:35.779Z,8.17
2023-01-13T23:21:04.999Z,8.57
2023-01-13T23:23:33.269Z,7.63
2023-01-13T23:26:01.758Z,9.63
2023-01-13T23:28:31.779Z,12.47
2023-01-13T23:30:59.886Z,9.37
2023-01-13T23:33:28.088Z,11.13
2023-01-13T23:36:00.760Z,9.13
2023-01-13T23:38:30.188Z,8.67
2023-01-13T23:40:58.494Z,8.33
2023-01-13T23:43:27.238Z,10.53
2023-01-13T23:46:03.226Z,9.70
2023-01-13T23:48:31.224Z,8.83
2023-01-13T23:51:00.023Z,11.43
2023-01-13T23:53:33.283Z,8.13
2023-01-13T23:56:01.904Z,10.60
2023-01-13T23:58:30.796Z,10.80
